Terminal Aerodrome Forecast
Issued by NWS Bismarck, ND

Home | Current Version | Previous Version | Text Only | Print | Product List | Glossary Off
Versions: 1 2 3 4 5 6 7 8 9 10 11 12 13 14 15 16 17

000
FTUS43 KBIS 240500
TAFISN
TAF
KISN 240540Z 2406/2506 24010KT P6SM FEW250
     FM240730 23009KT P6SM SCT080 BKN150
     FM241000 24008KT P6SM OVC080
     FM241300 25008KT 5SM -FZRA BR OVC015
     FM241500 30012KT 3SM -RA BR OVC010
     FM242000 31015G25KT P6SM -RA OVC015
     FM250000 30018G24KT P6SM OVC025=

USA.gov is the U.S. government's official web portal to all federal, state and local government web resources and services.